sensor_id;sensor_type;location;lat;lon;timestamp;temperature;humidity
64499;SHT31;51087;55.718;21.122;2022-09-30T00:00:06;10.57;97.73
64499;SHT31;51087;55.718;21.122;2022-09-30T00:02:31;10.52;98.60
64499;SHT31;51087;55.718;21.122;2022-09-30T00:04:57;10.42;98.57
64499;SHT31;51087;55.718;21.122;2022-09-30T00:07:22;10.37;98.67
64499;SHT31;51087;55.718;21.122;2022-09-30T00:09:48;10.23;99.31
64499;SHT31;51087;55.718;21.122;2022-09-30T00:12:15;10.20;98.77
64499;SHT31;51087;55.718;21.122;2022-09-30T00:14:41;10.10;98.61
64499;SHT31;51087;55.718;21.122;2022-09-30T00:17:06;9.96;98.90
64499;SHT31;51087;55.718;21.122;2022-09-30T00:19:31;9.85;99.15
64499;SHT31;51087;55.718;21.122;2022-09-30T00:21:57;9.78;99.54
64499;SHT31;51087;55.718;21.122;2022-09-30T00:24:22;9.69;99.66
64499;SHT31;51087;55.718;21.122;2022-09-30T00:26:48;9.59;99.99
64499;SHT31;51087;55.718;21.122;2022-09-30T00:29:13;9.49;99.99
64499;SHT31;51087;55.718;21.122;2022-09-30T00:31:39;9.47;99.99
64499;SHT31;51087;55.718;21.122;2022-09-30T00:34:05;9.37;99.99
64499;SHT31;51087;55.718;21.122;2022-09-30T00:36:39;9.32;99.99
64499;SHT31;51087;55.718;21.122;2022-09-30T00:39:06;9.27;99.99
64499;SHT31;51087;55.718;21.122;2022-09-30T00:41:32;9.24;99.99
64499;SHT31;51087;55.718;21.122;2022-09-30T00:43:58;9.14;99.99
64499;SHT31;51087;55.718;21.122;2022-09-30T00:48:59;9.03;99.99
64499;SHT31;51087;55.718;21.122;2022-09-30T00:51:44;8.97;99.99
64499;SHT31;51087;55.718;21.122;2022-09-30T00:54:16;8.87;99.99
64499;SHT31;51087;55.718;21.122;2022-09-30T00:56:47;8.79;99.99
64499;SHT31;51087;55.718;21.122;2022-09-30T00:59:18;8.77;99.99
64499;SHT31;51087;55.718;21.122;2022-09-30T01:01:44;8.65;99.99
64499;SHT31;51087;55.718;21.122;2022-09-30T01:04:21;8.59;99.99
64499;SHT31;51087;55.718;21.122;2022-09-30T01:06:48;8.48;99.99
64499;SHT31;51087;55.718;21.122;2022-09-30T01:09:13;8.41;99.99
64499;SHT31;51087;55.718;21.122;2022-09-30T01:11:39;8.35;99.99
64499;SHT31;51087;55.718;21.122;2022-09-30T01:14:18;8.28;99.99
64499;SHT31;51087;55.718;21.122;2022-09-30T01:17:02;8.21;99.99
64499;SHT31;51087;55.718;21.122;2022-09-30T01:22:20;8.11;99.99
64499;SHT31;51087;55.718;21.122;2022-09-30T01:27:55;7.94;99.99
64499;SHT31;51087;55.718;21.122;2022-09-30T01:33:34;7.77;99.99
64499;SHT31;51087;55.718;21.122;2022-09-30T01:39:06;7.65;99.99
64499;SHT31;51087;55.718;21.122;2022-09-30T01:41:46;7.62;99.99
64499;SHT31;51087;55.718;21.122;2022-09-30T01:49:39;7.49;99.99
64499;SHT31;51087;55.718;21.122;2022-09-30T01:52:12;7.45;99.99
64499;SHT31;51087;55.718;21.122;2022-09-30T01:55:15;7.44;99.99
64499;SHT31;51087;55.718;21.122;2022-09-30T02:00:17;7.39;99.99
64499;SHT31;51087;55.718;21.122;2022-09-30T02:02:50;7.36;99.99
64499;SHT31;51087;55.718;21.122;2022-09-30T02:05:25;7.34;99.99
64499;SHT31;51087;55.718;21.122;2022-09-30T02:08:10;7.31;99.99
64499;SHT31;51087;55.718;21.122;2022-09-30T02:10:58;7.22;99.99
64499;SHT31;51087;55.718;21.122;2022-09-30T02:13:29;7.22;99.99
64499;SHT31;51087;55.718;21.122;2022-09-30T02:16:00;7.17;99.99
64499;SHT31;51087;55.718;21.122;2022-09-30T02:18:33;7.17;99.99
64499;SHT31;51087;55.718;21.122;2022-09-30T02:21:04;7.15;99.99
64499;SHT31;51087;55.718;21.122;2022-09-30T02:23:33;7.15;99.99
64499;SHT31;51087;55.718;21.122;2022-09-30T02:26:05;7.14;99.99
64499;SHT31;51087;55.718;21.122;2022-09-30T02:28:34;7.14;99.99
64499;SHT31;51087;55.718;21.122;2022-09-30T02:31:02;7.10;99.99
64499;SHT31;51087;55.718;21.122;2022-09-30T02:33:34;7.01;99.99
64499;SHT31;51087;55.718;21.122;2022-09-30T02:36:09;7.00;99.99
64499;SHT31;51087;55.718;21.122;2022-09-30T02:38:44;6.92;99.99
64499;SHT31;51087;55.718;21.122;2022-09-30T02:41:13;6.89;99.99
64499;SHT31;51087;55.718;21.122;2022-09-30T02:43:41;6.83;99.99
64499;SHT31;51087;55.718;21.122;2022-09-30T02:52:10;6.72;99.99
64499;SHT31;51087;55.718;21.122;2022-09-30T02:59:51;6.63;99.99
64499;SHT31;51087;55.718;21.122;2022-09-30T03:02:18;6.65;99.99
64499;SHT31;51087;55.718;21.122;2022-09-30T03:04:45;6.62;99.99
64499;SHT31;51087;55.718;21.122;2022-09-30T03:07:11;6.62;99.99
64499;SHT31;51087;55.718;21.122;2022-09-30T03:09:37;6.59;99.99
64499;SHT31;51087;55.718;21.122;2022-09-30T03:25:55;6.39;99.99
64499;SHT31;51087;55.718;21.122;2022-09-30T03:31:11;6.39;99.99
64499;SHT31;51087;55.718;21.122;2022-09-30T03:33:50;6.34;99.99
64499;SHT31;51087;55.718;21.122;2022-09-30T03:39:04;6.37;99.99
64499;SHT31;51087;55.718;21.122;2022-09-30T03:44:50;6.35;99.99
64499;SHT31;51087;55.718;21.122;2022-09-30T03:46:59;6.34;99.99
64499;SHT31;51087;55.718;21.122;2022-09-30T03:49:38;6.25;99.99
64499;SHT31;51087;55.718;21.122;2022-09-30T03:52:07;6.22;99.99
64499;SHT31;51087;55.718;21.122;2022-09-30T03:54:33;6.29;99.99
64499;SHT31;51087;55.718;21.122;2022-09-30T03:57:01;6.24;99.99
64499;SHT31;51087;55.718;21.122;2022-09-30T03:59:29;6.25;99.99
64499;SHT31;51087;55.718;21.122;2022-09-30T04:01:55;6.22;99.99
64499;SHT31;51087;55.718;21.122;2022-09-30T04:04:24;6.27;99.99
64499;SHT31;51087;55.718;21.122;2022-09-30T04:06:49;6.22;99.99
64499;SHT31;51087;55.718;21.122;2022-09-30T04:09:15;6.20;99.99
64499;SHT31;51087;55.718;21.122;2022-09-30T04:11:41;6.17;99.99
64499;SHT31;51087;55.718;21.122;2022-09-30T04:14:07;6.17;99.99
64499;SHT31;51087;55.718;21.122;2022-09-30T04:16:32;6.18;99.99
64499;SHT31;51087;55.718;21.122;2022-09-30T04:18:58;6.18;99.99
64499;SHT31;51087;55.718;21.122;2022-09-30T04:21:24;6.18;99.99
64499;SHT31;51087;55.718;21.122;2022-09-30T04:23:54;6.20;99.99
64499;SHT31;51087;55.718;21.122;2022-09-30T04:26:20;6.22;99.99
64499;SHT31;51087;55.718;21.122;2022-09-30T04:28:47;6.24;99.99
64499;SHT31;51087;55.718;21.122;2022-09-30T04:31:13;6.20;99.99
64499;SHT31;51087;55.718;21.122;2022-09-30T04:33:39;6.21;99.99
64499;SHT31;51087;55.718;21.122;2022-09-30T04:36:05;6.20;99.99
64499;SHT31;51087;55.718;21.122;2022-09-30T04:38:31;6.21;99.99
64499;SHT31;51087;55.718;21.122;2022-09-30T04:41:01;6.21;99.99
64499;SHT31;51087;55.718;21.122;2022-09-30T04:43:27;6.25;99.99
64499;SHT31;51087;55.718;21.122;2022-09-30T04:45:53;6.25;99.99
64499;SHT31;51087;55.718;21.122;2022-09-30T04:48:19;6.24;99.99
64499;SHT31;51087;55.718;21.122;2022-09-30T04:50:45;6.22;99.99
64499;SHT31;51087;55.718;21.122;2022-09-30T04:53:12;6.24;99.99
64499;SHT31;51087;55.718;21.122;2022-09-30T04:55:39;6.21;99.99
64499;SHT31;51087;55.718;21.122;2022-09-30T04:58:05;6.24;99.99
64499;SHT31;51087;55.718;21.122;2022-09-30T05:00:34;6.29;99.99
64499;SHT31;51087;55.718;21.122;2022-09-30T05:02:59;6.31;99.99
64499;SHT31;51087;55.718;21.122;2022-09-30T05:05:25;6.34;99.99
64499;SHT31;51087;55.718;21.122;2022-09-30T05:07:50;6.37;99.99
64499;SHT31;51087;55.718;21.122;2022-09-30T05:10:16;6.35;99.99
64499;SHT31;51087;55.718;21.122;2022-09-30T05:12:42;6.39;99.99
64499;SHT31;51087;55.718;21.122;2022-09-30T05:15:08;6.41;99.99
64499;SHT31;51087;55.718;21.122;2022-09-30T05:17:34;6.42;99.99
64499;SHT31;51087;55.718;21.122;2022-09-30T05:20:00;6.46;99.99
64499;SHT31;51087;55.718;21.122;2022-09-30T05:22:27;6.50;99.99
64499;SHT31;51087;55.718;21.122;2022-09-30T05:24:53;6.50;99.99
64499;SHT31;51087;55.718;21.122;2022-09-30T05:27:21;6.57;99.99
64499;SHT31;51087;55.718;21.122;2022-09-30T05:29:46;6.66;99.99
64499;SHT31;51087;55.718;21.122;2022-09-30T05:32:12;6.72;99.99
64499;SHT31;51087;55.718;21.122;2022-09-30T05:34:37;6.79;99.99
64499;SHT31;51087;55.718;21.122;2022-09-30T05:37:04;6.84;99.99
64499;SHT31;51087;55.718;21.122;2022-09-30T05:39:29;6.93;99.99
64499;SHT31;51087;55.718;21.122;2022-09-30T05:41:56;6.97;99.99
64499;SHT31;51087;55.718;21.122;2022-09-30T05:44:22;7.11;99.99
64499;SHT31;51087;55.718;21.122;2022-09-30T05:46:47;7.21;99.99
64499;SHT31;51087;55.718;21.122;2022-09-30T05:49:13;7.30;99.99
64499;SHT31;51087;55.718;21.122;2022-09-30T05:51:38;7.42;99.99
64499;SHT31;51087;55.718;21.122;2022-09-30T05:54:04;7.58;99.99
64499;SHT31;51087;55.718;21.122;2022-09-30T05:56:30;7.76;99.99
64499;SHT31;51087;55.718;21.122;2022-09-30T05:58:55;7.87;99.99
64499;SHT31;51087;55.718;21.122;2022-09-30T06:01:20;8.00;99.99
64499;SHT31;51087;55.718;21.122;2022-09-30T06:03:46;8.11;99.99
64499;SHT31;51087;55.718;21.122;2022-09-30T06:06:13;8.21;99.99
64499;SHT31;51087;55.718;21.122;2022-09-30T06:08:39;8.42;99.99
64499;SHT31;51087;55.718;21.122;2022-09-30T06:11:10;8.56;99.99
64499;SHT31;51087;55.718;21.122;2022-09-30T06:13:36;8.65;99.99
64499;SHT31;51087;55.718;21.122;2022-09-30T06:16:02;8.72;99.99
64499;SHT31;51087;55.718;21.122;2022-09-30T06:18:28;8.77;99.99
64499;SHT31;51087;55.718;21.122;2022-09-30T06:20:56;8.89;99.99
64499;SHT31;51087;55.718;21.122;2022-09-30T06:23:22;9.04;99.99
64499;SHT31;51087;55.718;21.122;2022-09-30T06:25:52;9.16;99.80
64499;SHT31;51087;55.718;21.122;2022-09-30T06:28:18;9.21;99.50
64499;SHT31;51087;55.718;21.122;2022-09-30T06:30:44;9.34;99.46
64499;SHT31;51087;55.718;21.122;2022-09-30T06:33:11;9.48;98.36
64499;SHT31;51087;55.718;21.122;2022-09-30T06:35:36;9.52;98.41
64499;SHT31;51087;55.718;21.122;2022-09-30T06:38:02;9.63;98.20
64499;SHT31;51087;55.718;21.122;2022-09-30T06:40:28;9.66;97.84
64499;SHT31;51087;55.718;21.122;2022-09-30T06:43:00;9.75;97.65
64499;SHT31;51087;55.718;21.122;2022-09-30T06:45:27;9.79;97.70
64499;SHT31;51087;55.718;21.122;2022-09-30T06:47:56;9.83;98.24
64499;SHT31;51087;55.718;21.122;2022-09-30T06:50:22;9.93;97.43
64499;SHT31;51087;55.718;21.122;2022-09-30T06:52:48;9.99;97.53
64499;SHT31;51087;55.718;21.122;2022-09-30T06:55:13;10.07;96.71
64499;SHT31;51087;55.718;21.122;2022-09-30T06:57:40;10.13;96.68
64499;SHT31;51087;55.718;21.122;2022-09-30T07:00:06;10.14;96.96
64499;SHT31;51087;55.718;21.122;2022-09-30T07:02:32;10.18;97.02
64499;SHT31;51087;55.718;21.122;2022-09-30T07:04:59;10.25;96.35
64499;SHT31;51087;55.718;21.122;2022-09-30T07:07:25;10.38;95.65
64499;SHT31;51087;55.718;21.122;2022-09-30T07:09:51;10.47;95.80
64499;SHT31;51087;55.718;21.122;2022-09-30T07:12:16;10.58;95.07
64499;SHT31;51087;55.718;21.122;2022-09-30T07:14:42;10.64;94.51
64499;SHT31;51087;55.718;21.122;2022-09-30T07:17:07;10.75;95.61
64499;SHT31;51087;55.718;21.122;2022-09-30T07:19:33;10.86;95.09
64499;SHT31;51087;55.718;21.122;2022-09-30T07:21:59;11.00;94.73
64499;SHT31;51087;55.718;21.122;2022-09-30T07:24:43;11.17;93.39
64499;SHT31;51087;55.718;21.122;2022-09-30T07:27:08;11.37;93.13
64499;SHT31;51087;55.718;21.122;2022-09-30T07:29:34;11.60;92.27
64499;SHT31;51087;55.718;21.122;2022-09-30T07:31:59;11.81;93.01
64499;SHT31;51087;55.718;21.122;2022-09-30T07:34:25;12.10;91.18
64499;SHT31;51087;55.718;21.122;2022-09-30T07:36:50;12.34;89.73
64499;SHT31;51087;55.718;21.122;2022-09-30T07:39:16;12.61;89.67
64499;SHT31;51087;55.718;21.122;2022-09-30T07:41:41;12.84;88.00
64499;SHT31;51087;55.718;21.122;2022-09-30T07:44:11;13.05;86.23
64499;SHT31;51087;55.718;21.122;2022-09-30T07:46:39;13.15;86.49
64499;SHT31;51087;55.718;21.122;2022-09-30T07:49:06;13.26;85.02
64499;SHT31;51087;55.718;21.122;2022-09-30T07:51:35;13.27;85.65
64499;SHT31;51087;55.718;21.122;2022-09-30T07:54:08;13.32;85.82
64499;SHT31;51087;55.718;21.122;2022-09-30T07:56:35;13.36;85.98
64499;SHT31;51087;55.718;21.122;2022-09-30T07:59:03;13.47;86.38
64499;SHT31;51087;55.718;21.122;2022-09-30T08:01:29;13.54;84.66
64499;SHT31;51087;55.718;21.122;2022-09-30T08:04:01;13.68;86.06
64499;SHT31;51087;55.718;21.122;2022-09-30T08:06:28;13.77;85.88
64499;SHT31;51087;55.718;21.122;2022-09-30T08:08:55;13.85;85.04
64499;SHT31;51087;55.718;21.122;2022-09-30T08:11:21;13.75;82.73
64499;SHT31;51087;55.718;21.122;2022-09-30T08:13:54;13.64;83.74
64499;SHT31;51087;55.718;21.122;2022-09-30T08:16:21;13.60;84.53
64499;SHT31;51087;55.718;21.122;2022-09-30T08:18:47;13.47;84.76
64499;SHT31;51087;55.718;21.122;2022-09-30T08:21:13;13.24;84.99
64499;SHT31;51087;55.718;21.122;2022-09-30T08:23:38;13.05;85.41
64499;SHT31;51087;55.718;21.122;2022-09-30T08:26:09;13.02;85.68
64499;SHT31;51087;55.718;21.122;2022-09-30T08:28:35;12.88;85.60
64499;SHT31;51087;55.718;21.122;2022-09-30T08:31:06;12.89;86.51
64499;SHT31;51087;55.718;21.122;2022-09-30T08:33:33;13.03;85.78
64499;SHT31;51087;55.718;21.122;2022-09-30T08:36:08;12.95;85.93
64499;SHT31;51087;55.718;21.122;2022-09-30T08:38:34;13.08;85.76
64499;SHT31;51087;55.718;21.122;2022-09-30T08:44:31;13.23;85.70
64499;SHT31;51087;55.718;21.122;2022-09-30T08:52:53;14.08;84.30
64499;SHT31;51087;55.718;21.122;2022-09-30T08:55:27;14.50;84.04
64499;SHT31;51087;55.718;21.122;2022-09-30T08:57:55;14.41;82.31
64499;SHT31;51087;55.718;21.122;2022-09-30T09:00:21;14.61;83.67
64499;SHT31;51087;55.718;21.122;2022-09-30T09:16:15;14.91;82.08
64499;SHT31;51087;55.718;21.122;2022-09-30T09:18:53;14.91;79.17
64499;SHT31;51087;55.718;21.122;2022-09-30T09:21:50;15.09;78.44
64499;SHT31;51087;55.718;21.122;2022-09-30T09:24:21;15.40;78.24
64499;SHT31;51087;55.718;21.122;2022-09-30T09:26:48;15.53;78.71
64499;SHT31;51087;55.718;21.122;2022-09-30T09:31:46;16.49;74.26
64499;SHT31;51087;55.718;21.122;2022-09-30T09:34:13;17.17;72.49
64499;SHT31;51087;55.718;21.122;2022-09-30T09:39:53;17.35;71.48
64499;SHT31;51087;55.718;21.122;2022-09-30T09:47:52;17.69;69.07
64499;SHT31;51087;55.718;21.122;2022-09-30T09:53:41;18.83;64.71
64499;SHT31;51087;55.718;21.122;2022-09-30T09:56:29;19.14;64.04
64499;SHT31;51087;55.718;21.122;2022-09-30T09:59:15;18.76;61.72
64499;SHT31;51087;55.718;21.122;2022-09-30T10:01:49;18.75;59.53
64499;SHT31;51087;55.718;21.122;2022-09-30T10:04:24;18.58;61.22
64499;SHT31;51087;55.718;21.122;2022-09-30T10:07:11;18.95;61.01
64499;SHT31;51087;55.718;21.122;2022-09-30T10:09:39;18.79;59.80
64499;SHT31;51087;55.718;21.122;2022-09-30T10:17:00;19.89;57.74
64499;SHT31;51087;55.718;21.122;2022-09-30T10:19:27;19.83;56.49
64499;SHT31;51087;55.718;21.122;2022-09-30T10:24:35;20.30;55.10
64499;SHT31;51087;55.718;21.122;2022-09-30T10:27:01;20.74;54.08
64499;SHT31;51087;55.718;21.122;2022-09-30T10:29:34;21.36;53.80
64499;SHT31;51087;55.718;21.122;2022-09-30T10:32:02;21.06;53.93
64499;SHT31;51087;55.718;21.122;2022-09-30T10:36:58;20.98;53.70
64499;SHT31;51087;55.718;21.122;2022-09-30T10:39:31;19.86;56.41
64499;SHT31;51087;55.718;21.122;2022-09-30T10:42:19;18.76;57.46
64499;SHT31;51087;55.718;21.122;2022-09-30T10:44:53;18.41;61.10
64499;SHT31;51087;55.718;21.122;2022-09-30T10:47:23;18.60;61.52
64499;SHT31;51087;55.718;21.122;2022-09-30T10:49:54;18.44;61.15
64499;SHT31;51087;55.718;21.122;2022-09-30T10:52:26;18.47;60.25
64499;SHT31;51087;55.718;21.122;2022-09-30T10:54:57;18.32;61.52
64499;SHT31;51087;55.718;21.122;2022-09-30T10:57:28;19.16;59.13
64499;SHT31;51087;55.718;21.122;2022-09-30T10:59:59;20.17;55.90
64499;SHT31;51087;55.718;21.122;2022-09-30T11:05:20;20.57;54.52
64499;SHT31;51087;55.718;21.122;2022-09-30T11:07:53;22.19;51.67
64499;SHT31;51087;55.718;21.122;2022-09-30T11:18:57;24.73;47.10
64499;SHT31;51087;55.718;21.122;2022-09-30T11:21:28;24.00;45.81
64499;SHT31;51087;55.718;21.122;2022-09-30T11:24:15;24.07;46.50
64499;SHT31;51087;55.718;21.122;2022-09-30T11:27:05;25.79;43.48
64499;SHT31;51087;55.718;21.122;2022-09-30T11:43:06;26.38;41.12
64499;SHT31;51087;55.718;21.122;2022-09-30T11:53:42;26.89;39.60
64499;SHT31;51087;55.718;21.122;2022-09-30T11:58:58;27.31;38.77
64499;SHT31;51087;55.718;21.122;2022-09-30T12:01:41;27.95;38.67
64499;SHT31;51087;55.718;21.122;2022-09-30T12:04:38;27.24;38.96
64499;SHT31;51087;55.718;21.122;2022-09-30T12:07:36;25.65;42.20
64499;SHT31;51087;55.718;21.122;2022-09-30T12:10:13;24.62;43.62
64499;SHT31;51087;55.718;21.122;2022-09-30T12:12:41;23.22;46.36
64499;SHT31;51087;55.718;21.122;2022-09-30T12:15:13;23.01;46.35
64499;SHT31;51087;55.718;21.122;2022-09-30T12:17:44;21.46;48.39
64499;SHT31;51087;55.718;21.122;2022-09-30T12:20:27;19.35;54.25
64499;SHT31;51087;55.718;21.122;2022-09-30T12:23:26;18.89;55.23
64499;SHT31;51087;55.718;21.122;2022-09-30T12:25:59;18.95;55.76
64499;SHT31;51087;55.718;21.122;2022-09-30T12:28:44;19.03;55.66
64499;SHT31;51087;55.718;21.122;2022-09-30T12:31:50;18.70;56.91
64499;SHT31;51087;55.718;21.122;2022-09-30T12:37:40;17.97;59.38
64499;SHT31;51087;55.718;21.122;2022-09-30T12:43:11;16.99;62.63
64499;SHT31;51087;55.718;21.122;2022-09-30T12:48:34;16.09;65.47
64499;SHT31;51087;55.718;21.122;2022-09-30T12:51:01;16.08;65.20
64499;SHT31;51087;55.718;21.122;2022-09-30T12:55:54;16.11;65.18
64499;SHT31;51087;55.718;21.122;2022-09-30T12:58:31;16.57;63.41
64499;SHT31;51087;55.718;21.122;2022-09-30T13:01:02;16.36;63.13
64499;SHT31;51087;55.718;21.122;2022-09-30T13:03:47;16.36;64.47
64499;SHT31;51087;55.718;21.122;2022-09-30T13:06:14;16.07;65.33
64499;SHT31;51087;55.718;21.122;2022-09-30T13:09:26;15.87;65.53
64499;SHT31;51087;55.718;21.122;2022-09-30T13:14:37;15.74;66.03
64499;SHT31;51087;55.718;21.122;2022-09-30T13:19:40;15.84;65.00
64499;SHT31;51087;55.718;21.122;2022-09-30T13:40:44;15.54;65.77
64499;SHT31;51087;55.718;21.122;2022-09-30T13:43:33;15.66;66.07
64499;SHT31;51087;55.718;21.122;2022-09-30T13:46:06;15.93;65.34
64499;SHT31;51087;55.718;21.122;2022-09-30T13:48:35;15.96;65.81
64499;SHT31;51087;55.718;21.122;2022-09-30T13:51:06;15.77;65.48
64499;SHT31;51087;55.718;21.122;2022-09-30T13:53:37;16.28;64.59
64499;SHT31;51087;55.718;21.122;2022-09-30T13:56:12;17.24;62.20
64499;SHT31;51087;55.718;21.122;2022-09-30T14:02:07;16.21;64.39
64499;SHT31;51087;55.718;21.122;2022-09-30T14:20:53;16.08;65.49
64499;SHT31;51087;55.718;21.122;2022-09-30T14:23:23;15.80;65.69
64499;SHT31;51087;55.718;21.122;2022-09-30T14:26:01;15.33;66.59
64499;SHT31;51087;55.718;21.122;2022-09-30T14:28:50;14.95;68.52
64499;SHT31;51087;55.718;21.122;2022-09-30T14:31:18;14.71;69.25
64499;SHT31;51087;55.718;21.122;2022-09-30T14:33:46;14.34;69.95
64499;SHT31;51087;55.718;21.122;2022-09-30T14:36:15;14.23;70.77
64499;SHT31;51087;55.718;21.122;2022-09-30T14:38:47;14.13;70.41
64499;SHT31;51087;55.718;21.122;2022-09-30T14:41:17;14.11;70.81
64499;SHT31;51087;55.718;21.122;2022-09-30T14:43:44;14.02;70.46
64499;SHT31;51087;55.718;21.122;2022-09-30T14:46:25;14.04;71.19
64499;SHT31;51087;55.718;21.122;2022-09-30T14:48:56;14.09;71.24
64499;SHT31;51087;55.718;21.122;2022-09-30T14:51:24;14.01;71.60
64499;SHT31;51087;55.718;21.122;2022-09-30T14:56:19;13.94;72.28
64499;SHT31;51087;55.718;21.122;2022-09-30T14:58:46;13.89;71.98
64499;SHT31;51087;55.718;21.122;2022-09-30T15:01:15;13.79;72.16
64499;SHT31;51087;55.718;21.122;2022-09-30T15:03:50;13.67;72.31
64499;SHT31;51087;55.718;21.122;2022-09-30T15:06:26;13.60;72.64
64499;SHT31;51087;55.718;21.122;2022-09-30T15:09:07;13.63;72.76
64499;SHT31;51087;55.718;21.122;2022-09-30T15:11:33;13.61;72.48
64499;SHT31;51087;55.718;21.122;2022-09-30T15:14:05;13.53;73.33
64499;SHT31;51087;55.718;21.122;2022-09-30T15:16:32;13.44;73.86
64499;SHT31;51087;55.718;21.122;2022-09-30T15:18:58;13.43;74.26
64499;SHT31;51087;55.718;21.122;2022-09-30T15:21:25;13.36;74.89
64499;SHT31;51087;55.718;21.122;2022-09-30T15:23:56;13.32;75.32
64499;SHT31;51087;55.718;21.122;2022-09-30T15:26:24;13.30;75.61
64499;SHT31;51087;55.718;21.122;2022-09-30T15:28:50;13.27;75.76
64499;SHT31;51087;55.718;21.122;2022-09-30T15:31:26;13.24;75.98
64499;SHT31;51087;55.718;21.122;2022-09-30T15:34:12;13.18;76.17
64499;SHT31;51087;55.718;21.122;2022-09-30T15:36:39;13.16;76.47
64499;SHT31;51087;55.718;21.122;2022-09-30T15:39:11;13.13;76.68
64499;SHT31;51087;55.718;21.122;2022-09-30T15:41:41;13.08;77.19
64499;SHT31;51087;55.718;21.122;2022-09-30T15:44:18;12.98;77.42
64499;SHT31;51087;55.718;21.122;2022-09-30T15:47:05;12.93;78.00
64499;SHT31;51087;55.718;21.122;2022-09-30T15:49:51;12.91;78.10
64499;SHT31;51087;55.718;21.122;2022-09-30T15:52:27;12.85;78.24
64499;SHT31;51087;55.718;21.122;2022-09-30T15:54:55;12.77;78.58
64499;SHT31;51087;55.718;21.122;2022-09-30T16:00:04;12.63;79.87
64499;SHT31;51087;55.718;21.122;2022-09-30T16:02:32;12.50;80.37
64499;SHT31;51087;55.718;21.122;2022-09-30T16:04:59;12.38;81.06
64499;SHT31;51087;55.718;21.122;2022-09-30T16:07:30;12.22;81.99
64499;SHT31;51087;55.718;21.122;2022-09-30T16:09:56;12.22;81.66
64499;SHT31;51087;55.718;21.122;2022-09-30T16:12:28;12.09;82.19
64499;SHT31;51087;55.718;21.122;2022-09-30T16:15:00;11.99;82.70
64499;SHT31;51087;55.718;21.122;2022-09-30T16:17:33;11.89;83.30
64499;SHT31;51087;55.718;21.122;2022-09-30T16:20:21;11.81;83.54
64499;SHT31;51087;55.718;21.122;2022-09-30T16:22:49;11.69;84.14
64499;SHT31;51087;55.718;21.122;2022-09-30T16:25:27;11.61;84.63
64499;SHT31;51087;55.718;21.122;2022-09-30T16:28:15;11.48;84.97
64499;SHT31;51087;55.718;21.122;2022-09-30T16:30:49;11.37;85.72
64499;SHT31;51087;55.718;21.122;2022-09-30T16:33:15;11.28;86.33
64499;SHT31;51087;55.718;21.122;2022-09-30T16:35:44;11.22;86.61
64499;SHT31;51087;55.718;21.122;2022-09-30T16:38:13;11.17;86.43
64499;SHT31;51087;55.718;21.122;2022-09-30T16:40:39;11.06;86.85
64499;SHT31;51087;55.718;21.122;2022-09-30T16:43:05;11.00;87.50
64499;SHT31;51087;55.718;21.122;2022-09-30T16:45:31;10.89;87.62
64499;SHT31;51087;55.718;21.122;2022-09-30T16:47:59;10.82;88.32
64499;SHT31;51087;55.718;21.122;2022-09-30T16:50:42;10.79;88.74
64499;SHT31;51087;55.718;21.122;2022-09-30T16:53:09;10.72;88.55
64499;SHT31;51087;55.718;21.122;2022-09-30T16:55:37;10.62;88.69
64499;SHT31;51087;55.718;21.122;2022-09-30T16:58:02;10.55;89.26
64499;SHT31;51087;55.718;21.122;2022-09-30T17:00:30;10.51;89.79
64499;SHT31;51087;55.718;21.122;2022-09-30T17:02:56;10.44;90.10
64499;SHT31;51087;55.718;21.122;2022-09-30T17:05:23;10.34;90.21
64499;SHT31;51087;55.718;21.122;2022-09-30T17:07:55;10.34;90.45
64499;SHT31;51087;55.718;21.122;2022-09-30T17:10:29;10.30;90.80
64499;SHT31;51087;55.718;21.122;2022-09-30T17:12:56;10.24;90.57
64499;SHT31;51087;55.718;21.122;2022-09-30T17:15:26;10.18;91.45
64499;SHT31;51087;55.718;21.122;2022-09-30T17:17:53;10.11;91.08
64499;SHT31;51087;55.718;21.122;2022-09-30T17:20:19;10.04;91.41
64499;SHT31;51087;55.718;21.122;2022-09-30T17:22:45;10.00;92.23
64499;SHT31;51087;55.718;21.122;2022-09-30T17:25:11;9.90;92.10
64499;SHT31;51087;55.718;21.122;2022-09-30T17:27:37;9.85;92.38
64499;SHT31;51087;55.718;21.122;2022-09-30T17:30:04;9.86;92.61
64499;SHT31;51087;55.718;21.122;2022-09-30T17:32:31;9.82;92.70
64499;SHT31;51087;55.718;21.122;2022-09-30T17:34:56;9.73;93.35
64499;SHT31;51087;55.718;21.122;2022-09-30T17:37:22;9.75;93.32
64499;SHT31;51087;55.718;21.122;2022-09-30T17:39:47;9.78;93.38
64499;SHT31;51087;55.718;21.122;2022-09-30T17:42:14;9.81;93.31
64499;SHT31;51087;55.718;21.122;2022-09-30T17:44:59;9.86;93.83
64499;SHT31;51087;55.718;21.122;2022-09-30T17:47:25;9.89;94.11
64499;SHT31;51087;55.718;21.122;2022-09-30T17:49:51;9.96;93.95
64499;SHT31;51087;55.718;21.122;2022-09-30T17:52:17;9.97;94.21
64499;SHT31;51087;55.718;21.122;2022-09-30T17:54:43;10.03;94.19
64499;SHT31;51087;55.718;21.122;2022-09-30T17:57:08;10.10;94.25
64499;SHT31;51087;55.718;21.122;2022-09-30T17:59:34;10.16;94.42
64499;SHT31;51087;55.718;21.122;2022-09-30T18:01:59;10.20;94.20
64499;SHT31;51087;55.718;21.122;2022-09-30T18:04:25;10.30;94.27
64499;SHT31;51087;55.718;21.122;2022-09-30T18:06:52;10.34;94.12
64499;SHT31;51087;55.718;21.122;2022-09-30T18:09:18;10.38;94.05
64499;SHT31;51087;55.718;21.122;2022-09-30T18:11:44;10.38;93.97
64499;SHT31;51087;55.718;21.122;2022-09-30T18:14:10;10.37;93.98
64499;SHT31;51087;55.718;21.122;2022-09-30T18:16:37;10.42;93.90
64499;SHT31;51087;55.718;21.122;2022-09-30T18:19:04;10.41;93.85
64499;SHT31;51087;55.718;21.122;2022-09-30T18:21:32;10.40;93.80
64499;SHT31;51087;55.718;21.122;2022-09-30T18:23:59;10.44;93.91
64499;SHT31;51087;55.718;21.122;2022-09-30T18:26:26;10.38;94.13
64499;SHT31;51087;55.718;21.122;2022-09-30T18:28:55;10.36;94.16
64499;SHT31;51087;55.718;21.122;2022-09-30T18:31:23;10.36;94.25
64499;SHT31;51087;55.718;21.122;2022-09-30T18:34:02;10.33;94.29
64499;SHT31;51087;55.718;21.122;2022-09-30T18:36:29;10.33;94.33
64499;SHT31;51087;55.718;21.122;2022-09-30T18:38:59;10.33;94.33
64499;SHT31;51087;55.718;21.122;2022-09-30T18:41:26;10.31;94.39
64499;SHT31;51087;55.718;21.122;2022-09-30T18:43:52;10.31;94.40
64499;SHT31;51087;55.718;21.122;2022-09-30T18:46:24;10.30;94.43
64499;SHT31;51087;55.718;21.122;2022-09-30T18:48:50;10.27;94.64
64499;SHT31;51087;55.718;21.122;2022-09-30T18:51:22;10.23;95.03
64499;SHT31;51087;55.718;21.122;2022-09-30T18:53:57;10.23;95.06
64499;SHT31;51087;55.718;21.122;2022-09-30T18:56:29;10.17;94.96
64499;SHT31;51087;55.718;21.122;2022-09-30T18:59:00;10.13;95.52